Time;durP1;ratioP1;P1;durP2;ratioP2;P2;SDS_P1;SDS_P2;PMS_P1;PMS_P2;Temp;Humidity;BMP_temperature;BMP_pressure;BME280_temperature;BME280_humidity;BME280_pressure;Samples;Min_cycle;Max_cycle;Signal;HPM_P1;HPM_P2
2024/03/22 00:02:03;;;;;;;26.77;16.37;;;;;;;;;;4331106;32;320156;-76
2024/03/22 00:04:29;;;;;;;24.17;14.57;;;;;;;;;;4333173;32;319107;-77
2024/03/22 00:06:57;;;;;;;20.57;12.30;;;;;;;;;;4334733;32;319107;-77
2024/03/22 00:09:23;;;;;;;24.17;13.77;;;;;;;;;;4349860;32;319178;-76
2024/03/22 00:11:49;;;;;;;26.80;15.10;;;;;;;;;;4342682;32;318388;-78
2024/03/22 00:14:18;;;;;;;23.17;14.73;;;;;;;;;;4318749;32;319309;-77
2024/03/22 00:16:44;;;;;;;32.13;16.73;;;;;;;;;;4333789;32;319191;-77
2024/03/22 00:19:11;;;;;;;30.23;18.00;;;;;;;;;;4333185;32;319000;-77
2024/03/22 00:21:36;;;;;;;34.10;17.87;;;;;;;;;;4349455;32;319883;-77
2024/03/22 00:24:05;;;;;;;33.73;17.97;;;;;;;;;;4333264;32;319033;-76
2024/03/22 00:26:31;;;;;;;34.20;17.87;;;;;;;;;;4345623;32;319084;-76
2024/03/22 00:28:58;;;;;;;34.03;19.57;;;;;;;;;;4328381;32;318428;-76
2024/03/22 00:31:24;;;;;;;33.03;19.33;;;;;;;;;;4335132;32;319654;-76
2024/03/22 00:33:51;;;;;;;36.20;19.87;;;;;;;;;;4334733;32;319192;-76
2024/03/22 00:36:16;;;;;;;29.50;17.30;;;;;;;;;;4316161;32;318483;-76
2024/03/22 00:38:43;;;;;;;29.33;15.80;;;;;;;;;;4334763;32;319533;-79
2024/03/22 00:41:10;;;;;;;25.23;15.57;;;;;;;;;;4337557;32;319281;-76
2024/03/22 00:43:37;;;;;;;27.47;14.10;;;;;;;;;;4342290;32;319416;-76
2024/03/22 00:46:03;;;;;;;26.80;14.03;;;;;;;;;;4347511;32;318777;-76
2024/03/22 00:48:29;;;;;;;31.23;17.20;;;;;;;;;;4331107;32;319363;-76
2024/03/22 00:50:55;;;;;;;22.63;13.67;;;;;;;;;;4348549;32;339759;-76
2024/03/22 00:53:22;;;;;;;36.77;18.70;;;;;;;;;;4338576;32;319545;-76
2024/03/22 00:55:51;;;;;;;29.37;16.50;;;;;;;;;;4346403;32;319231;-76
2024/03/22 00:58:19;;;;;;;24.17;11.17;;;;;;;;;;4325170;32;340743;-76
2024/03/22 01:00:45;;;;;;;22.77;12.57;;;;;;;;;;4349111;32;319153;-76
2024/03/22 01:03:12;;;;;;;24.73;13.43;;;;;;;;;;4328009;32;319280;-76
2024/03/22 01:05:38;;;;;;;34.67;18.03;;;;;;;;;;4335474;32;319199;-76
2024/03/22 01:08:05;;;;;;;41.33;21.70;;;;;;;;;;4347445;32;319203;-76
2024/03/22 01:10:32;;;;;;;36.97;21.93;;;;;;;;;;4326905;32;416436;-76
2024/03/22 01:12:59;;;;;;;28.63;18.10;;;;;;;;;;4337308;32;324068;-77
2024/03/22 01:15:26;;;;;;;31.67;19.50;;;;;;;;;;4322653;32;319566;-76
2024/03/22 01:17:54;;;;;;;22.20;14.50;;;;;;;;;;4334294;32;319259;-76
2024/03/22 01:20:20;;;;;;;28.27;15.37;;;;;;;;;;4330867;32;319340;-76
2024/03/22 01:22:46;;;;;;;31.67;15.63;;;;;;;;;;4340428;32;319305;-76
2024/03/22 01:25:12;;;;;;;26.73;15.33;;;;;;;;;;4334606;32;319250;-76
2024/03/22 01:27:39;;;;;;;26.87;14.13;;;;;;;;;;4346081;32;319417;-76
2024/03/22 01:30:06;;;;;;;19.63;13.23;;;;;;;;;;4328277;32;319370;-76
2024/03/22 01:32:34;;;;;;;23.20;13.10;;;;;;;;;;4326839;32;319154;-76
2024/03/22 01:35:00;;;;;;;26.33;12.60;;;;;;;;;;4336951;32;319339;-76
2024/03/22 01:37:26;;;;;;;20.97;11.13;;;;;;;;;;4338013;32;319487;-76
2024/03/22 01:39:52;;;;;;;17.67;11.53;;;;;;;;;;4346781;32;319219;-77
2024/03/22 01:42:19;;;;;;;16.20;10.40;;;;;;;;;;4316887;32;319561;-75
2024/03/22 01:44:45;;;;;;;22.30;11.37;;;;;;;;;;4333736;32;319278;-75
2024/03/22 01:47:12;;;;;;;16.07;11.03;;;;;;;;;;4322904;32;319349;-75
2024/03/22 01:49:39;;;;;;;16.17;9.30;;;;;;;;;;4333139;32;318754;-75
2024/03/22 01:52:07;;;;;;;17.07;9.00;;;;;;;;;;4323871;32;318371;-76
2024/03/22 01:54:32;;;;;;;14.23;9.27;;;;;;;;;;4324589;32;332361;-76
2024/03/22 01:56:59;;;;;;;15.53;9.50;;;;;;;;;;4333465;32;318174;-75
2024/03/22 01:59:26;;;;;;;15.73;9.37;;;;;;;;;;4325525;32;318362;-75
2024/03/22 02:01:53;;;;;;;18.60;9.53;;;;;;;;;;4335954;32;318249;-75
2024/03/22 02:04:18;;;;;;;20.70;10.53;;;;;;;;;;4319995;32;318777;-75
2024/03/22 02:06:46;;;;;;;15.27;9.77;;;;;;;;;;4341785;32;347864;-75
2024/03/22 02:09:12;;;;;;;18.20;10.67;;;;;;;;;;4337575;32;318898;-76
2024/03/22 02:11:40;;;;;;;15.73;10.63;;;;;;;;;;4347838;32;319327;-76
2024/03/22 02:14:06;;;;;;;23.67;12.37;;;;;;;;;;4338219;32;321185;-75
2024/03/22 02:16:33;;;;;;;24.63;10.80;;;;;;;;;;4341762;32;319342;-75
2024/03/22 02:18:59;;;;;;;22.50;10.70;;;;;;;;;;4339341;32;319402;-75
2024/03/22 02:21:26;;;;;;;17.83;11.80;;;;;;;;;;4323700;32;319447;-75
2024/03/22 02:23:53;;;;;;;21.13;11.93;;;;;;;;;;4332269;32;319147;-75
2024/03/22 02:26:20;;;;;;;20.00;12.67;;;;;;;;;;4315566;32;319376;-75
2024/03/22 02:28:45;;;;;;;26.67;13.03;;;;;;;;;;4331307;32;340930;-75
2024/03/22 02:31:12;;;;;;;20.63;12.23;;;;;;;;;;4327233;32;319255;-77
2024/03/22 02:33:38;;;;;;;26.47;12.33;;;;;;;;;;4347804;32;318652;-77
2024/03/22 02:36:06;;;;;;;20.10;13.00;;;;;;;;;;4346904;32;319165;-77
2024/03/22 02:38:31;;;;;;;21.97;11.97;;;;;;;;;;4327974;32;416163;-77
2024/03/22 02:40:59;;;;;;;20.47;13.00;;;;;;;;;;4347009;32;354986;-77
2024/03/22 02:43:25;;;;;;;20.73;11.80;;;;;;;;;;4337925;32;319041;-77
2024/03/22 02:45:52;;;;;;;21.13;11.87;;;;;;;;;;4348968;32;317937;-76
2024/03/22 02:48:17;;;;;;;25.97;13.57;;;;;;;;;;4331403;32;350296;-76
2024/03/22 02:50:44;;;;;;;23.40;11.27;;;;;;;;;;4348278;32;318080;-76
2024/03/22 02:53:10;;;;;;;25.50;13.10;;;;;;;;;;4340993;32;318144;-76
2024/03/22 02:55:38;;;;;;;22.47;11.57;;;;;;;;;;4350651;32;318235;-76
2024/03/22 02:58:05;;;;;;;24.30;11.03;;;;;;;;;;4348893;32;318200;-76
2024/03/22 03:00:32;;;;;;;28.37;12.73;;;;;;;;;;4328637;32;417738;-76
2024/03/22 03:02:59;;;;;;;21.40;13.03;;;;;;;;;;4348790;32;318263;-76
2024/03/22 03:05:26;;;;;;;20.00;13.07;;;;;;;;;;4339783;32;326505;-76
2024/03/22 03:07:51;;;;;;;21.20;12.57;;;;;;;;;;4348734;32;318176;-76
2024/03/22 03:10:18;;;;;;;19.97;12.03;;;;;;;;;;4329472;32;356706;-76
2024/03/22 03:12:44;;;;;;;25.70;14.47;;;;;;;;;;4350060;32;318184;-76
2024/03/22 03:15:12;;;;;;;32.00;14.37;;;;;;;;;;4339858;32;318243;-76
2024/03/22 03:17:38;;;;;;;34.53;15.33;;;;;;;;;;4348808;32;317544;-76
2024/03/22 03:20:10;;;;;;;18.23;12.27;;;;;;;;;;4334801;32;318215;-76
2024/03/22 03:22:35;;;;;;;31.90;15.40;;;;;;;;;;4319015;32;418659;-76
2024/03/22 03:25:03;;;;;;;27.10;14.50;;;;;;;;;;4343762;32;318398;-77
2024/03/22 03:27:29;;;;;;;27.07;15.80;;;;;;;;;;4338127;32;318043;-76
2024/03/22 03:29:56;;;;;;;32.83;18.43;;;;;;;;;;4336044;32;317596;-76
2024/03/22 03:32:24;;;;;;;33.87;18.97;;;;;;;;;;4317408;32;347241;-76
2024/03/22 03:34:51;;;;;;;41.53;20.73;;;;;;;;;;4333136;32;318117;-76
2024/03/22 03:37:16;;;;;;;48.13;24.97;;;;;;;;;;4324401;32;328413;-76
2024/03/22 03:39:43;;;;;;;48.60;26.43;;;;;;;;;;4344605;32;354025;-76
2024/03/22 03:42:09;;;;;;;54.90;30.03;;;;;;;;;;4339683;32;318581;-76
2024/03/22 03:44:36;;;;;;;49.73;26.00;;;;;;;;;;4342677;32;318521;-76
2024/03/22 03:47:02;;;;;;;37.90;21.27;;;;;;;;;;4349134;32;318524;-76
2024/03/22 03:49:30;;;;;;;43.37;22.63;;;;;;;;;;4339331;32;317421;-76
2024/03/22 03:51:56;;;;;;;45.90;27.20;;;;;;;;;;4349313;32;318362;-76
2024/03/22 03:54:23;;;;;;;46.23;23.13;;;;;;;;;;4333081;32;318279;-75
2024/03/22 03:56:48;;;;;;;36.63;20.43;;;;;;;;;;4349844;32;317995;-75
2024/03/22 03:59:15;;;;;;;39.17;21.13;;;;;;;;;;4338623;32;318163;-75
2024/03/22 04:01:41;;;;;;;35.03;19.27;;;;;;;;;;4347646;32;318110;-75
2024/03/22 04:04:07;;;;;;;31.63;16.10;;;;;;;;;;4338574;32;318172;-75
2024/03/22 04:06:34;;;;;;;21.53;12.97;;;;;;;;;;4341818;32;318343;-76
2024/03/22 04:09:02;;;;;;;29.30;17.30;;;;;;;;;;4349257;32;317633;-76
2024/03/22 04:11:28;;;;;;;30.63;17.43;;;;;;;;;;4339664;32;318418;-76
2024/03/22 04:13:55;;;;;;;39.87;20.93;;;;;;;;;;4336992;32;317402;-76
2024/03/22 04:16:20;;;;;;;40.17;21.17;;;;;;;;;;4318418;32;318035;-76
2024/03/22 04:18:47;;;;;;;39.10;18.93;;;;;;;;;;4341331;32;318072;-76
2024/03/22 04:21:13;;;;;;;36.63;19.33;;;;;;;;;;4338812;32;318429;-76
2024/03/22 04:23:41;;;;;;;34.80;17.93;;;;;;;;;;4348055;32;317580;-76
2024/03/22 04:26:07;;;;;;;30.37;17.80;;;;;;;;;;4338351;32;317591;-76
2024/03/22 04:28:33;;;;;;;36.07;18.73;;;;;;;;;;4341766;32;318003;-76
2024/03/22 04:31:00;;;;;;;34.00;19.60;;;;;;;;;;4347968;32;318220;-76
2024/03/22 04:33:28;;;;;;;41.23;22.93;;;;;;;;;;4339742;32;317953;-76
2024/03/22 04:35:54;;;;;;;42.77;23.57;;;;;;;;;;4348133;32;318342;-76
2024/03/22 04:38:20;;;;;;;58.57;29.13;;;;;;;;;;4333362;32;317610;-76
2024/03/22 04:40:48;;;;;;;69.10;32.70;;;;;;;;;;4348715;32;318322;-76
2024/03/22 04:43:15;;;;;;;85.13;34.17;;;;;;;;;;4339440;32;318377;-76
2024/03/22 04:45:43;;;;;;;81.53;31.00;;;;;;;;;;4349088;32;318297;-76
2024/03/22 04:48:09;;;;;;;65.77;27.37;;;;;;;;;;4339395;32;318124;-76
2024/03/22 04:50:36;;;;;;;55.97;29.07;;;;;;;;;;4342673;32;318048;-76
2024/03/22 04:53:02;;;;;;;82.83;30.87;;;;;;;;;;4348052;32;317496;-76
2024/03/22 04:55:29;;;;;;;59.70;27.53;;;;;;;;;;4337793;32;318311;-76
2024/03/22 04:57:56;;;;;;;64.83;29.77;;;;;;;;;;4349418;32;318271;-76
2024/03/22 05:00:24;;;;;;;67.80;31.17;;;;;;;;;;4332058;32;341599;-76
2024/03/22 05:02:50;;;;;;;64.27;29.77;;;;;;;;;;4348705;32;318128;-76
2024/03/22 05:05:17;;;;;;;60.50;30.10;;;;;;;;;;4339185;32;318105;-76
2024/03/22 05:07:43;;;;;;;46.13;24.20;;;;;;;;;;4347098;32;324280;-77
2024/03/22 05:10:10;;;;;;;46.23;23.03;;;;;;;;;;4334359;32;358171;-77
2024/03/22 05:12:36;;;;;;;47.03;25.47;;;;;;;;;;4342878;32;318530;-77
2024/03/22 05:15:05;;;;;;;53.17;24.47;;;;;;;;;;4349137;32;317406;-76
2024/03/22 05:17:33;;;;;;;43.40;23.80;;;;;;;;;;4336393;32;417397;-76
2024/03/22 05:19:58;;;;;;;32.33;19.57;;;;;;;;;;4337025;32;318082;-76
2024/03/22 05:22:25;;;;;;;31.97;19.47;;;;;;;;;;4318149;32;318052;-77
2024/03/22 05:24:51;;;;;;;32.57;18.37;;;;;;;;;;4333916;32;317915;-77
2024/03/22 05:27:18;;;;;;;36.30;18.50;;;;;;;;;;4324385;32;318249;-76
2024/03/22 05:29:44;;;;;;;28.97;17.03;;;;;;;;;;4333206;32;342589;-76
2024/03/22 05:32:12;;;;;;;21.67;13.73;;;;;;;;;;4322812;32;317620;-76
2024/03/22 05:34:38;;;;;;;19.97;11.80;;;;;;;;;;4326395;32;317440;-77
2024/03/22 05:37:05;;;;;;;29.63;15.57;;;;;;;;;;4333050;32;318378;-76
2024/03/22 05:39:31;;;;;;;23.87;14.97;;;;;;;;;;4320438;32;417606;-76
2024/03/22 05:41:57;;;;;;;32.47;17.57;;;;;;;;;;4333664;32;327919;-76
2024/03/22 05:44:23;;;;;;;33.97;16.97;;;;;;;;;;4316859;32;318463;-75
2024/03/22 05:46:50;;;;;;;26.47;16.37;;;;;;;;;;4332505;32;318368;-75
2024/03/22 05:49:17;;;;;;;36.20;17.70;;;;;;;;;;4322040;32;353538;-75
2024/03/22 05:51:44;;;;;;;42.83;19.87;;;;;;;;;;4332419;32;327163;-76
2024/03/22 05:54:09;;;;;;;36.90;20.83;;;;;;;;;;4323805;32;317577;-76
2024/03/22 05:56:36;;;;;;;41.83;22.70;;;;;;;;;;4336328;32;319044;-77
2024/03/22 05:59:02;;;;;;;42.17;23.90;;;;;;;;;;4347244;32;317865;-76
2024/03/22 06:01:28;;;;;;;42.53;26.03;;;;;;;;;;4337621;32;318113;-76
2024/03/22 06:03:54;;;;;;;67.93;32.07;;;;;;;;;;4348566;32;317979;-76
2024/03/22 06:06:25;;;;;;;75.10;41.83;;;;;;;;;;4331555;32;318271;-76
2024/03/22 06:08:52;;;;;;;69.77;35.43;;;;;;;;;;4347983;32;318025;-77
2024/03/22 06:11:19;;;;;;;64.40;35.23;;;;;;;;;;4338266;32;318379;-77
2024/03/22 06:13:45;;;;;;;59.27;34.23;;;;;;;;;;4338311;32;334403;-77
2024/03/22 06:16:11;;;;;;;68.70;34.23;;;;;;;;;;4339626;32;357457;-77
2024/03/22 06:18:37;;;;;;;74.07;38.20;;;;;;;;;;4351210;32;318035;-77
2024/03/22 06:21:04;;;;;;;74.50;40.20;;;;;;;;;;4365413;32;316829;-77
2024/03/22 06:23:32;;;;;;;103.40;42.87;;;;;;;;;;4356139;32;417615;-76
2024/03/22 06:25:58;;;;;;;71.47;43.10;;;;;;;;;;4368688;32;318701;-76
2024/03/22 06:28:26;;;;;;;61.73;35.43;;;;;;;;;;4344925;32;318099;-75
2024/03/22 06:30:52;;;;;;;61.00;32.53;;;;;;;;;;4356812;32;318580;-75
2024/03/22 06:33:19;;;;;;;77.37;32.43;;;;;;;;;;4340483;32;319226;-75
2024/03/22 06:35:47;;;;;;;46.97;26.83;;;;;;;;;;4350774;32;319442;-75
2024/03/22 06:38:12;;;;;;;34.37;20.83;;;;;;;;;;4339951;32;319364;-75
2024/03/22 06:40:41;;;;;;;34.67;18.80;;;;;;;;;;4328480;32;319146;-75
2024/03/22 06:43:06;;;;;;;31.03;19.30;;;;;;;;;;4325154;32;319320;-76
2024/03/22 06:45:33;;;;;;;32.33;17.63;;;;;;;;;;4337300;32;318495;-76
2024/03/22 06:47:59;;;;;;;30.60;18.93;;;;;;;;;;4336853;32;323377;-75
2024/03/22 06:50:25;;;;;;;34.33;20.13;;;;;;;;;;4319649;32;337788;-75
2024/03/22 06:52:51;;;;;;;38.43;21.73;;;;;;;;;;4335375;32;318342;-76
2024/03/22 06:55:18;;;;;;;37.63;21.30;;;;;;;;;;4338952;32;319347;-76
2024/03/22 06:57:46;;;;;;;32.50;18.67;;;;;;;;;;4353188;32;318853;-76
2024/03/22 07:00:13;;;;;;;29.70;16.90;;;;;;;;;;4342777;32;319321;-76
2024/03/22 07:02:39;;;;;;;29.23;16.20;;;;;;;;;;4345537;32;319520;-76
2024/03/22 07:05:07;;;;;;;22.10;12.67;;;;;;;;;;4350683;32;318525;-75
2024/03/22 07:07:36;;;;;;;23.30;13.47;;;;;;;;;;4337622;32;419961;-77
2024/03/22 07:10:03;;;;;;;22.77;13.93;;;;;;;;;;4353522;32;318575;-77
2024/03/22 07:12:32;;;;;;;16.93;10.97;;;;;;;;;;4318233;32;318716;-78
2024/03/22 07:15:02;;;;;;;26.30;15.63;;;;;;;;;;4332646;32;319262;-77
2024/03/22 07:17:28;;;;;;;24.63;15.50;;;;;;;;;;4333614;32;319407;-78
2024/03/22 07:20:01;;;;;;;30.27;13.77;;;;;;;;;;4350329;32;318630;-77
2024/03/22 07:22:27;;;;;;;31.27;14.50;;;;;;;;;;4320712;32;319833;-77
2024/03/22 07:25:05;;;;;;;22.00;12.33;;;;;;;;;;4336660;32;318476;-78
2024/03/22 07:27:33;;;;;;;20.17;11.90;;;;;;;;;;4334133;32;420712;-77
2024/03/22 07:30:02;;;;;;;15.13;9.10;;;;;;;;;;4348400;32;318572;-78
2024/03/22 07:32:34;;;;;;;11.57;8.27;;;;;;;;;;4332538;32;317418;-78
2024/03/22 07:35:00;;;;;;;15.60;8.73;;;;;;;;;;4349554;32;317726;-77
2024/03/22 07:37:28;;;;;;;13.90;8.20;;;;;;;;;;4332854;32;317449;-77
2024/03/22 07:39:55;;;;;;;13.13;6.87;;;;;;;;;;4348902;32;318145;-77
2024/03/22 07:42:24;;;;;;;16.20;8.97;;;;;;;;;;4330079;32;317610;-78
2024/03/22 07:44:53;;;;;;;11.80;8.10;;;;;;;;;;4348693;32;317866;-77
2024/03/22 07:47:24;;;;;;;14.93;8.17;;;;;;;;;;4330266;32;318133;-77
2024/03/22 07:49:51;;;;;;;27.40;7.60;;;;;;;;;;4334485;32;318587;-78
2024/03/22 07:52:17;;;;;;;15.17;9.23;;;;;;;;;;4311485;32;318191;-77
2024/03/22 07:54:44;;;;;;;16.77;9.10;;;;;;;;;;4343858;32;318127;-78
2024/03/22 07:57:13;;;;;;;17.03;7.83;;;;;;;;;;4327336;32;318513;-78
2024/03/22 07:59:40;;;;;;;13.27;7.37;;;;;;;;;;4340983;32;318182;-78
2024/03/22 08:02:08;;;;;;;19.57;8.47;;;;;;;;;;4338042;32;318342;-77
2024/03/22 08:04:39;;;;;;;16.40;7.03;;;;;;;;;;4338502;32;317726;-77
2024/03/22 08:07:23;;;;;;;14.37;6.67;;;;;;;;;;4348920;32;317698;-76
2024/03/22 08:09:50;;;;;;;14.10;7.73;;;;;;;;;;4334295;32;417864;-78
2024/03/22 08:12:19;;;;;;;12.47;8.10;;;;;;;;;;4318199;32;317393;-77
2024/03/22 08:14:55;;;;;;;15.80;7.30;;;;;;;;;;4341120;32;317659;-78
2024/03/22 08:17:21;;;;;;;14.07;6.73;;;;;;;;;;4338737;32;318533;-76
2024/03/22 08:19:49;;;;;;;18.37;7.50;;;;;;;;;;4339759;32;324634;-76
2024/03/22 08:22:15;;;;;;;13.30;7.17;;;;;;;;;;4330191;32;318190;-77
2024/03/22 08:24:41;;;;;;;13.07;7.63;;;;;;;;;;4347147;32;318262;-77
2024/03/22 08:27:07;;;;;;;14.93;6.50;;;;;;;;;;4333865;32;317478;-77
2024/03/22 08:29:34;;;;;;;38.70;8.47;;;;;;;;;;4346331;32;317503;-78
2024/03/22 08:32:02;;;;;;;21.00;7.20;;;;;;;;;;4346423;32;318256;-77
2024/03/22 08:34:29;;;;;;;20.80;10.27;;;;;;;;;;4318578;32;318328;-78
2024/03/22 08:36:56;;;;;;;12.03;7.40;;;;;;;;;;4342297;32;345484;-77
2024/03/22 08:39:24;;;;;;;9.10;6.33;;;;;;;;;;4339077;32;348264;-77
2024/03/22 08:41:51;;;;;;;11.30;7.23;;;;;;;;;;4346565;32;316370;-76
2024/03/22 08:44:18;;;;;;;12.97;6.67;;;;;;;;;;4319168;32;318077;-77
2024/03/22 08:46:44;;;;;;;10.60;6.30;;;;;;;;;;4340690;32;318674;-78
2024/03/22 08:49:11;;;;;;;16.37;6.17;;;;;;;;;;4340477;32;317522;-78
2024/03/22 08:51:37;;;;;;;7.53;5.63;;;;;;;;;;4349076;32;318295;-78
2024/03/22 08:54:05;;;;;;;10.27;6.13;;;;;;;;;;4348821;32;316849;-78
2024/03/22 08:56:31;;;;;;;12.03;6.00;;;;;;;;;;4330953;32;417843;-77
2024/03/22 08:58:58;;;;;;;10.87;6.10;;;;;;;;;;4333478;32;317764;-77
2024/03/22 09:01:24;;;;;;;9.97;5.10;;;;;;;;;;4329074;32;318458;-76
2024/03/22 09:03:51;;;;;;;16.03;6.07;;;;;;;;;;4350265;32;317254;-76
2024/03/22 09:06:17;;;;;;;14.70;8.33;;;;;;;;;;4330044;32;320467;-76
2024/03/22 09:08:44;;;;;;;9.60;5.90;;;;;;;;;;4347159;32;352536;-76
2024/03/22 09:11:11;;;;;;;11.40;6.13;;;;;;;;;;4338377;32;317225;-76
2024/03/22 09:13:38;;;;;;;8.13;5.63;;;;;;;;;;4338458;32;318147;-77
2024/03/22 09:16:04;;;;;;;8.53;6.13;;;;;;;;;;4336792;32;317325;-78
2024/03/22 09:18:31;;;;;;;11.20;6.53;;;;;;;;;;4333237;32;317445;-77
2024/03/22 09:20:56;;;;;;;12.73;6.07;;;;;;;;;;4349961;32;318488;-77
2024/03/22 09:23:23;;;;;;;15.90;10.45;;;;;;;;;;4338740;32;317946;-77
2024/03/22 09:25:49;;;;;;;7.78;4.97;;;;;;;;;;4343356;32;318578;-77
2024/03/22 09:28:17;;;;;;;10.98;5.72;;;;;;;;;;4322621;32;317097;-77
2024/03/22 09:30:43;;;;;;;45.63;12.50;;;;;;;;;;4332553;32;318384;-77
2024/03/22 09:33:10;;;;;;;10.30;6.57;;;;;;;;;;4337494;32;360558;-77
2024/03/22 09:35:36;;;;;;;6.27;5.07;;;;;;;;;;4347836;32;318251;-77
2024/03/22 09:38:03;;;;;;;8.82;7.12;;;;;;;;;;4348227;32;317595;-77
2024/03/22 09:40:29;;;;;;;9.13;6.40;;;;;;;;;;4321349;32;317650;-77
2024/03/22 09:43:03;;;;;;;18.43;9.63;;;;;;;;;;4340279;32;316633;-78
2024/03/22 09:45:31;;;;;;;14.70;5.90;;;;;;;;;;4338451;32;318458;-78
2024/03/22 09:47:59;;;;;;;14.63;5.37;;;;;;;;;;4334564;32;318263;-78
2024/03/22 09:50:25;;;;;;;13.65;6.85;;;;;;;;;;4317865;32;318324;-77
2024/03/22 09:52:53;;;;;;;6.90;4.70;;;;;;;;;;4344237;32;318558;-77
2024/03/22 09:55:23;;;;;;;8.20;4.95;;;;;;;;;;4337626;32;317591;-77
2024/03/22 09:57:51;;;;;;;13.00;6.28;;;;;;;;;;4340903;32;316449;-78
2024/03/22 10:00:18;;;;;;;8.38;5.10;;;;;;;;;;4334406;32;318181;-76
2024/03/22 10:02:47;;;;;;;11.18;6.43;;;;;;;;;;4348237;32;317121;-77
2024/03/22 10:05:13;;;;;;;7.15;4.60;;;;;;;;;;4338179;32;317992;-77
2024/03/22 10:07:41;;;;;;;11.05;5.78;;;;;;;;;;4347318;32;317253;-77
2024/03/22 10:10:07;;;;;;;5.80;4.40;;;;;;;;;;4337563;32;317618;-77
2024/03/22 10:12:34;;;;;;;11.15;4.47;;;;;;;;;;4333644;32;317610;-77
2024/03/22 10:14:59;;;;;;;10.25;7.80;;;;;;;;;;4348379;32;318453;-77
2024/03/22 10:17:27;;;;;;;14.30;8.00;;;;;;;;;;4329130;32;318646;-78
2024/03/22 10:19:54;;;;;;;14.68;9.27;;;;;;;;;;4333621;32;318348;-78
2024/03/22 10:22:21;;;;;;;18.27;12.48;;;;;;;;;;4316318;32;318103;-77
2024/03/22 10:24:47;;;;;;;8.27;6.35;;;;;;;;;;4333699;32;319532;-76
2024/03/22 10:27:14;;;;;;;7.53;4.65;;;;;;;;;;4327437;32;347410;-79
2024/03/22 10:29:41;;;;;;;11.07;6.25;;;;;;;;;;4346317;32;317596;-78
2024/03/22 10:32:09;;;;;;;9.52;5.30;;;;;;;;;;4337672;32;319577;-78
2024/03/22 10:34:35;;;;;;;6.12;4.70;;;;;;;;;;4341976;32;316782;-78
2024/03/22 10:37:08;;;;;;;7.28;4.75;;;;;;;;;;4349736;32;317447;-77
2024/03/22 10:39:35;;;;;;;7.47;5.07;;;;;;;;;;4336128;32;416778;-77
2024/03/22 10:42:01;;;;;;;5.50;4.03;;;;;;;;;;4342806;32;316629;-77
2024/03/22 10:44:27;;;;;;;11.25;6.12;;;;;;;;;;4316889;32;332726;-78
2024/03/22 10:46:57;;;;;;;8.40;4.12;;;;;;;;;;4338188;32;359309;-77
2024/03/22 10:49:24;;;;;;;6.78;5.32;;;;;;;;;;4339448;32;317339;-77
2024/03/22 10:51:53;;;;;;;6.55;4.10;;;;;;;;;;4342964;32;317319;-77
2024/03/22 10:54:24;;;;;;;6.57;3.80;;;;;;;;;;4317342;32;318004;-77
2024/03/22 10:56:51;;;;;;;6.35;4.90;;;;;;;;;;4336378;32;317479;-77
2024/03/22 10:59:19;;;;;;;5.57;3.80;;;;;;;;;;4334997;32;317412;-78
2024/03/22 11:01:46;;;;;;;6.45;3.80;;;;;;;;;;4341480;32;317243;-78
2024/03/22 11:04:12;;;;;;;7.80;4.97;;;;;;;;;;4335832;32;317569;-78
2024/03/22 11:06:39;;;;;;;6.60;4.40;;;;;;;;;;4328517;32;317111;-77
2024/03/22 11:09:06;;;;;;;16.45;7.95;;;;;;;;;;4340263;32;317136;-77
2024/03/22 11:11:37;;;;;;;8.32;4.28;;;;;;;;;;4335243;32;412565;-78
2024/03/22 11:14:03;;;;;;;17.33;3.33;;;;;;;;;;4335989;32;316508;-77
2024/03/22 11:16:31;;;;;;;11.95;4.93;;;;;;;;;;4321724;32;318253;-77
2024/03/22 11:18:57;;;;;;;6.20;3.97;;;;;;;;;;4350622;32;318235;-77
2024/03/22 11:21:23;;;;;;;4.57;3.83;;;;;;;;;;4340965;32;317420;-77
2024/03/22 11:23:49;;;;;;;10.73;3.75;;;;;;;;;;4350769;32;320796;-76
2024/03/22 11:26:16;;;;;;;15.77;3.83;;;;;;;;;;4332345;32;318455;-77
2024/03/22 11:28:43;;;;;;;7.93;4.93;;;;;;;;;;4344650;32;318410;-77
2024/03/22 11:31:10;;;;;;;10.30;6.45;;;;;;;;;;4341029;32;317870;-77
2024/03/22 11:33:36;;;;;;;9.43;6.45;;;;;;;;;;4352463;32;318301;-77
2024/03/22 11:36:03;;;;;;;10.50;5.43;;;;;;;;;;4350647;32;316590;-77
2024/03/22 11:38:30;;;;;;;4.43;3.50;;;;;;;;;;4333274;32;318773;-77
2024/03/22 11:40:59;;;;;;;6.72;4.80;;;;;;;;;;4345766;32;317457;-77
2024/03/22 11:43:27;;;;;;;7.23;4.93;;;;;;;;;;4334062;32;316630;-78
2024/03/22 11:45:56;;;;;;;6.55;3.33;;;;;;;;;;4347552;32;316906;-78
2024/03/22 11:48:22;;;;;;;13.60;4.72;;;;;;;;;;4325459;32;317572;-77
2024/03/22 11:50:50;;;;;;;12.50;6.53;;;;;;;;;;4342657;32;318450;-77
2024/03/22 11:53:16;;;;;;;5.93;3.85;;;;;;;;;;4343803;32;326966;-77
2024/03/22 11:55:42;;;;;;;10.65;5.62;;;;;;;;;;4347754;32;317181;-77
2024/03/22 11:58:09;;;;;;;17.23;9.07;;;;;;;;;;4330348;32;418078;-77
2024/03/22 12:00:35;;;;;;;16.70;6.72;;;;;;;;;;4337436;32;330107;-76
2024/03/22 12:03:05;;;;;;;13.27;5.43;;;;;;;;;;4321131;32;318249;-78
2024/03/22 12:05:32;;;;;;;11.07;5.05;;;;;;;;;;4334809;32;318139;-77
2024/03/22 12:07:58;;;;;;;14.52;5.47;;;;;;;;;;4325577;32;318710;-77
2024/03/22 12:10:25;;;;;;;8.02;4.28;;;;;;;;;;4337713;32;317544;-76
2024/03/22 12:12:53;;;;;;;4.97;3.85;;;;;;;;;;4331851;32;317013;-78
2024/03/22 12:15:20;;;;;;;4.75;3.58;;;;;;;;;;4349104;32;316845;-77
2024/03/22 12:17:45;;;;;;;6.87;3.78;;;;;;;;;;4328947;32;342381;-77
2024/03/22 12:20:14;;;;;;;11.23;3.25;;;;;;;;;;4348820;32;316452;-78
2024/03/22 12:22:40;;;;;;;7.28;3.40;;;;;;;;;;4349869;32;318016;-77
2024/03/22 12:25:09;;;;;;;6.80;4.30;;;;;;;;;;4333444;32;317134;-76
2024/03/22 12:27:35;;;;;;;3.90;3.12;;;;;;;;;;4340987;32;317573;-77
2024/03/22 12:30:02;;;;;;;4.20;3.08;;;;;;;;;;4340305;32;317301;-77
2024/03/22 12:32:27;;;;;;;4.85;3.60;;;;;;;;;;4339657;32;316688;-76
2024/03/22 12:34:54;;;;;;;7.62;3.70;;;;;;;;;;4318480;32;317189;-77
2024/03/22 12:37:21;;;;;;;6.93;3.45;;;;;;;;;;4331789;32;316477;-77
2024/03/22 12:39:48;;;;;;;6.12;3.75;;;;;;;;;;4323863;32;317142;-77
2024/03/22 12:42:13;;;;;;;7.62;4.22;;;;;;;;;;4342972;32;335178;-77
2024/03/22 12:44:40;;;;;;;7.80;3.53;;;;;;;;;;4338387;32;317166;-77
2024/03/22 12:47:06;;;;;;;7.75;3.30;;;;;;;;;;4326601;32;317295;-77
2024/03/22 12:49:33;;;;;;;4.80;3.03;;;;;;;;;;4349802;32;317061;-77
2024/03/22 12:51:59;;;;;;;5.50;3.58;;;;;;;;;;4337631;32;317843;-77
2024/03/22 12:54:27;;;;;;;6.85;4.47;;;;;;;;;;4348409;32;316347;-77
2024/03/22 12:56:52;;;;;;;9.75;3.65;;;;;;;;;;4327228;32;328998;-77
2024/03/22 12:59:19;;;;;;;7.18;3.45;;;;;;;;;;4340150;32;316356;-77
2024/03/22 13:01:45;;;;;;;6.37;3.60;;;;;;;;;;4339726;32;316585;-77
2024/03/22 13:04:12;;;;;;;10.95;4.10;;;;;;;;;;4349584;32;317092;-77
2024/03/22 13:06:38;;;;;;;6.05;3.55;;;;;;;;;;4347763;32;318201;-77
2024/03/22 13:09:05;;;;;;;5.28;3.75;;;;;;;;;;4331606;32;317044;-77
2024/03/22 13:11:32;;;;;;;7.78;4.62;;;;;;;;;;4345044;32;317540;-77
2024/03/22 13:13:59;;;;;;;5.15;3.60;;;;;;;;;;4325799;32;317070;-77
2024/03/22 13:16:24;;;;;;;7.05;3.40;;;;;;;;;;4337613;32;317091;-77
2024/03/22 13:18:51;;;;;;;9.60;4.85;;;;;;;;;;4336168;32;317050;-77
2024/03/22 13:21:17;;;;;;;3.72;3.00;;;;;;;;;;4335548;32;317039;-77
2024/03/22 13:23:44;;;;;;;7.40;3.85;;;;;;;;;;4340100;32;316870;-77
2024/03/22 13:26:09;;;;;;;7.10;3.78;;;;;;;;;;4348952;32;345628;-77
2024/03/22 13:28:38;;;;;;;7.10;3.75;;;;;;;;;;4349774;32;318349;-78
2024/03/22 13:31:06;;;;;;;7.30;3.50;;;;;;;;;;4333113;32;317079;-77
2024/03/22 13:33:34;;;;;;;5.43;3.50;;;;;;;;;;4350049;32;317279;-77
2024/03/22 13:35:59;;;;;;;6.25;3.65;;;;;;;;;;4340150;32;317310;-77
2024/03/22 13:38:26;;;;;;;5.45;3.70;;;;;;;;;;4349486;32;316954;-77
2024/03/22 13:40:56;;;;;;;12.32;3.70;;;;;;;;;;4337841;32;317386;-77
2024/03/22 13:43:23;;;;;;;4.68;3.90;;;;;;;;;;4350393;32;318318;-78
2024/03/22 13:45:53;;;;;;;18.37;13.23;;;;;;;;;;4338605;32;317331;-77
2024/03/22 13:48:23;;;;;;;6.45;4.20;;;;;;;;;;4348614;32;319197;-77
2024/03/22 13:50:49;;;;;;;7.12;4.20;;;;;;;;;;4339869;32;317368;-77
2024/03/22 13:53:16;;;;;;;7.57;4.37;;;;;;;;;;4346085;32;317330;-77
2024/03/22 13:55:42;;;;;;;8.75;4.32;;;;;;;;;;4350055;32;317180;-77
2024/03/22 13:58:09;;;;;;;9.50;4.95;;;;;;;;;;4328786;32;417693;-77
2024/03/22 14:00:35;;;;;;;6.65;4.57;;;;;;;;;;4348381;32;317306;-77
2024/03/22 14:03:04;;;;;;;7.15;4.90;;;;;;;;;;4318639;32;316508;-77
2024/03/22 14:05:30;;;;;;;8.15;4.05;;;;;;;;;;4332776;32;317441;-77
2024/03/22 14:07:57;;;;;;;7.12;4.68;;;;;;;;;;4324484;32;317095;-77
2024/03/22 14:10:27;;;;;;;8.18;4.20;;;;;;;;;;4334900;32;317085;-77
2024/03/22 14:12:54;;;;;;;7.15;4.05;;;;;;;;;;4326968;32;316314;-77